In Rescue
 
Open Full Screen Window  High Contrast Mode
Wind Gusting 16 knots
10
October 25, 2021 5:10 PM EDT
Present Weather: Light Rain
Weather Information
Wind Direction
  030 °
Wind Speed
  10 kt (12 mph)
Wind Gust
  16 kt (18 mph)
Altimeter
29.83 in
Visibility
10 SM
Temperature
08° C
46° F
Dewpoint
08° C
46° F
Humidity
100%
1hr Rain Fall
00.01 in.
24hr Rain Fall
01.15 in.
Sky Condition
Overcast @ 1,200 ft
MVFR

METAR KD95 252110Z AUTO 03010G16KT 10SM -RA OVC012 08/08 A2983 RMK AO2 T00810076 P0001

FAA Disclaimer: The data displayed is for advisory purposes only and is not to be used for flight planning or operations.